sensor_id;sensor_type;location;lat;lon;timestamp;temperature;humidity
27559;DHT22;15002;52.028;5.670;2024-01-16T00:02:24;3.40;99.90
27559;DHT22;15002;52.028;5.670;2024-01-16T00:04:50;3.30;99.90
27559;DHT22;15002;52.028;5.670;2024-01-16T00:07:15;3.30;99.90
27559;DHT22;15002;52.028;5.670;2024-01-16T00:09:41;3.30;99.90
27559;DHT22;15002;52.028;5.670;2024-01-16T00:12:07;3.30;99.90
27559;DHT22;15002;52.028;5.670;2024-01-16T00:14:36;3.20;99.90
27559;DHT22;15002;52.028;5.670;2024-01-16T00:17:02;3.20;99.90
27559;DHT22;15002;52.028;5.670;2024-01-16T00:19:28;3.10;99.90
27559;DHT22;15002;52.028;5.670;2024-01-16T00:21:54;3.10;99.90
27559;DHT22;15002;52.028;5.670;2024-01-16T00:24:20;3.10;99.90
27559;DHT22;15002;52.028;5.670;2024-01-16T00:26:45;3.00;99.90
27559;DHT22;15002;52.028;5.670;2024-01-16T00:29:11;3.00;99.90
27559;DHT22;15002;52.028;5.670;2024-01-16T00:31:40;2.90;99.90
27559;DHT22;15002;52.028;5.670;2024-01-16T00:34:06;2.90;99.90
27559;DHT22;15002;52.028;5.670;2024-01-16T00:36:33;3.00;99.90
27559;DHT22;15002;52.028;5.670;2024-01-16T00:38:58;2.90;99.90
27559;DHT22;15002;52.028;5.670;2024-01-16T00:41:24;2.90;99.90
27559;DHT22;15002;52.028;5.670;2024-01-16T00:43:49;2.80;99.90
27559;DHT22;15002;52.028;5.670;2024-01-16T00:46:15;2.80;99.90
27559;DHT22;15002;52.028;5.670;2024-01-16T00:48:41;2.80;99.90
27559;DHT22;15002;52.028;5.670;2024-01-16T00:51:06;2.90;99.90
27559;DHT22;15002;52.028;5.670;2024-01-16T00:53:32;2.90;99.90
27559;DHT22;15002;52.028;5.670;2024-01-16T00:55:57;3.10;99.90
27559;DHT22;15002;52.028;5.670;2024-01-16T00:58:23;3.10;99.90
27559;DHT22;15002;52.028;5.670;2024-01-16T01:00:49;3.10;99.90
27559;DHT22;15002;52.028;5.670;2024-01-16T01:03:15;3.10;99.90
27559;DHT22;15002;52.028;5.670;2024-01-16T01:05:41;3.30;99.90
27559;DHT22;15002;52.028;5.670;2024-01-16T01:08:06;3.20;99.90
27559;DHT22;15002;52.028;5.670;2024-01-16T01:10:32;3.30;99.90
27559;DHT22;15002;52.028;5.670;2024-01-16T01:12:58;3.30;99.90
27559;DHT22;15002;52.028;5.670;2024-01-16T01:15:24;3.30;99.90
27559;DHT22;15002;52.028;5.670;2024-01-16T01:17:50;3.40;99.90
27559;DHT22;15002;52.028;5.670;2024-01-16T01:20:17;3.40;99.90
27559;DHT22;15002;52.028;5.670;2024-01-16T01:22:44;3.30;99.90
27559;DHT22;15002;52.028;5.670;2024-01-16T01:25:10;3.20;99.90
27559;DHT22;15002;52.028;5.670;2024-01-16T01:27:37;3.10;99.90
27559;DHT22;15002;52.028;5.670;2024-01-16T01:30:03;3.10;99.90
27559;DHT22;15002;52.028;5.670;2024-01-16T01:32:29;3.10;99.90
27559;DHT22;15002;52.028;5.670;2024-01-16T01:34:54;3.00;99.90
27559;DHT22;15002;52.028;5.670;2024-01-16T01:37:20;3.00;99.90
27559;DHT22;15002;52.028;5.670;2024-01-16T01:39:46;3.00;99.90
27559;DHT22;15002;52.028;5.670;2024-01-16T01:42:11;3.00;99.90
27559;DHT22;15002;52.028;5.670;2024-01-16T01:44:37;3.00;99.90
27559;DHT22;15002;52.028;5.670;2024-01-16T01:47:03;2.90;99.90
27559;DHT22;15002;52.028;5.670;2024-01-16T01:49:31;2.90;99.90
27559;DHT22;15002;52.028;5.670;2024-01-16T01:51:57;2.90;99.90
27559;DHT22;15002;52.028;5.670;2024-01-16T01:54:24;2.90;99.90
27559;DHT22;15002;52.028;5.670;2024-01-16T01:56:50;2.90;99.90
27559;DHT22;15002;52.028;5.670;2024-01-16T01:59:18;3.00;99.90
27559;DHT22;15002;52.028;5.670;2024-01-16T02:01:48;3.00;99.90
27559;DHT22;15002;52.028;5.670;2024-01-16T02:04:19;3.00;99.90
27559;DHT22;15002;52.028;5.670;2024-01-16T02:06:45;3.00;99.90
27559;DHT22;15002;52.028;5.670;2024-01-16T02:09:11;3.00;99.90
27559;DHT22;15002;52.028;5.670;2024-01-16T02:11:39;3.00;99.90
27559;DHT22;15002;52.028;5.670;2024-01-16T02:14:05;3.00;99.90
27559;DHT22;15002;52.028;5.670;2024-01-16T02:16:41;2.90;99.90
27559;DHT22;15002;52.028;5.670;2024-01-16T02:19:07;3.00;99.90
27559;DHT22;15002;52.028;5.670;2024-01-16T02:21:50;3.00;99.90
27559;DHT22;15002;52.028;5.670;2024-01-16T02:24:19;3.10;99.90
27559;DHT22;15002;52.028;5.670;2024-01-16T02:26:45;3.20;99.90
27559;DHT22;15002;52.028;5.670;2024-01-16T02:29:10;3.30;99.90
27559;DHT22;15002;52.028;5.670;2024-01-16T02:31:36;3.40;99.90
27559;DHT22;15002;52.028;5.670;2024-01-16T02:34:02;3.60;99.90
27559;DHT22;15002;52.028;5.670;2024-01-16T02:36:29;3.70;99.90
27559;DHT22;15002;52.028;5.670;2024-01-16T02:38:55;3.60;99.90
27559;DHT22;15002;52.028;5.670;2024-01-16T02:41:21;3.70;99.90
27559;DHT22;15002;52.028;5.670;2024-01-16T02:43:47;3.70;99.90
27559;DHT22;15002;52.028;5.670;2024-01-16T02:46:13;3.70;99.90
27559;DHT22;15002;52.028;5.670;2024-01-16T02:48:39;3.60;99.90
27559;DHT22;15002;52.028;5.670;2024-01-16T02:51:05;3.80;99.90
27559;DHT22;15002;52.028;5.670;2024-01-16T02:53:31;3.80;99.90
27559;DHT22;15002;52.028;5.670;2024-01-16T02:55:57;3.80;99.90
27559;DHT22;15002;52.028;5.670;2024-01-16T02:58:29;3.80;99.90
27559;DHT22;15002;52.028;5.670;2024-01-16T03:00:56;3.90;99.90
27559;DHT22;15002;52.028;5.670;2024-01-16T03:03:23;3.80;99.90
27559;DHT22;15002;52.028;5.670;2024-01-16T03:05:50;3.80;99.90
27559;DHT22;15002;52.028;5.670;2024-01-16T03:08:15;3.90;99.90
27559;DHT22;15002;52.028;5.670;2024-01-16T03:10:41;3.80;99.90
27559;DHT22;15002;52.028;5.670;2024-01-16T03:13:07;3.70;99.90
27559;DHT22;15002;52.028;5.670;2024-01-16T03:15:33;3.70;99.90
27559;DHT22;15002;52.028;5.670;2024-01-16T03:17:59;3.60;99.90
27559;DHT22;15002;52.028;5.670;2024-01-16T03:20:28;3.60;99.90
27559;DHT22;15002;52.028;5.670;2024-01-16T03:22:54;3.60;99.90
27559;DHT22;15002;52.028;5.670;2024-01-16T03:25:19;3.60;99.90
27559;DHT22;15002;52.028;5.670;2024-01-16T03:27:45;3.60;99.90
27559;DHT22;15002;52.028;5.670;2024-01-16T03:30:11;3.60;99.90
27559;DHT22;15002;52.028;5.670;2024-01-16T03:32:38;3.70;99.90
27559;DHT22;15002;52.028;5.670;2024-01-16T03:35:05;3.60;99.90
27559;DHT22;15002;52.028;5.670;2024-01-16T03:37:32;3.50;99.90
27559;DHT22;15002;52.028;5.670;2024-01-16T03:39:57;3.50;99.90
27559;DHT22;15002;52.028;5.670;2024-01-16T03:42:23;3.60;99.90
27559;DHT22;15002;52.028;5.670;2024-01-16T03:44:49;3.60;99.90
27559;DHT22;15002;52.028;5.670;2024-01-16T03:47:15;3.60;99.90
27559;DHT22;15002;52.028;5.670;2024-01-16T03:49:41;3.50;99.90
27559;DHT22;15002;52.028;5.670;2024-01-16T03:52:07;3.60;99.90
27559;DHT22;15002;52.028;5.670;2024-01-16T03:54:32;3.50;99.90
27559;DHT22;15002;52.028;5.670;2024-01-16T03:56:58;3.50;99.90
27559;DHT22;15002;52.028;5.670;2024-01-16T03:59:24;3.50;99.90
27559;DHT22;15002;52.028;5.670;2024-01-16T04:01:49;3.60;99.90
27559;DHT22;15002;52.028;5.670;2024-01-16T04:04:18;3.60;99.90
27559;DHT22;15002;52.028;5.670;2024-01-16T04:06:44;3.80;99.90
27559;DHT22;15002;52.028;5.670;2024-01-16T04:09:09;3.60;99.90
27559;DHT22;15002;52.028;5.670;2024-01-16T04:11:35;3.70;99.90
27559;DHT22;15002;52.028;5.670;2024-01-16T04:14:01;3.70;99.90
27559;DHT22;15002;52.028;5.670;2024-01-16T04:16:27;3.70;99.90
27559;DHT22;15002;52.028;5.670;2024-01-16T04:18:53;3.70;99.90
27559;DHT22;15002;52.028;5.670;2024-01-16T04:21:19;3.80;99.90
27559;DHT22;15002;52.028;5.670;2024-01-16T04:23:44;3.90;99.90
27559;DHT22;15002;52.028;5.670;2024-01-16T04:26:10;3.90;99.90
27559;DHT22;15002;52.028;5.670;2024-01-16T04:28:36;3.80;99.90
27559;DHT22;15002;52.028;5.670;2024-01-16T04:31:05;3.90;99.90
27559;DHT22;15002;52.028;5.670;2024-01-16T04:33:30;3.80;99.90
27559;DHT22;15002;52.028;5.670;2024-01-16T04:35:56;3.70;99.90
27559;DHT22;15002;52.028;5.670;2024-01-16T04:38:22;3.60;99.90
27559;DHT22;15002;52.028;5.670;2024-01-16T04:40:47;3.60;99.90
27559;DHT22;15002;52.028;5.670;2024-01-16T04:43:13;3.50;99.90
27559;DHT22;15002;52.028;5.670;2024-01-16T04:45:39;3.50;99.90
27559;DHT22;15002;52.028;5.670;2024-01-16T04:48:05;3.50;99.90
27559;DHT22;15002;52.028;5.670;2024-01-16T04:50:30;3.50;99.90
27559;DHT22;15002;52.028;5.670;2024-01-16T04:52:59;3.50;99.90
27559;DHT22;15002;52.028;5.670;2024-01-16T04:55:30;3.40;99.90
27559;DHT22;15002;52.028;5.670;2024-01-16T04:57:57;3.40;99.90
27559;DHT22;15002;52.028;5.670;2024-01-16T05:00:22;3.40;99.90
27559;DHT22;15002;52.028;5.670;2024-01-16T05:02:48;3.40;99.90
27559;DHT22;15002;52.028;5.670;2024-01-16T05:05:14;3.40;99.90
27559;DHT22;15002;52.028;5.670;2024-01-16T05:07:40;3.40;99.90
27559;DHT22;15002;52.028;5.670;2024-01-16T05:10:09;3.50;99.90
27559;DHT22;15002;52.028;5.670;2024-01-16T05:12:35;3.40;99.90
27559;DHT22;15002;52.028;5.670;2024-01-16T05:15:00;3.50;99.90
27559;DHT22;15002;52.028;5.670;2024-01-16T05:17:26;3.40;99.90
27559;DHT22;15002;52.028;5.670;2024-01-16T05:19:51;3.50;99.90
27559;DHT22;15002;52.028;5.670;2024-01-16T05:22:17;3.50;99.90
27559;DHT22;15002;52.028;5.670;2024-01-16T05:24:42;3.50;99.90
27559;DHT22;15002;52.028;5.670;2024-01-16T05:27:08;3.50;99.90
27559;DHT22;15002;52.028;5.670;2024-01-16T05:29:34;3.50;99.90
27559;DHT22;15002;52.028;5.670;2024-01-16T05:32:03;3.50;99.90
27559;DHT22;15002;52.028;5.670;2024-01-16T05:34:29;3.50;99.90
27559;DHT22;15002;52.028;5.670;2024-01-16T05:36:54;3.60;99.90
27559;DHT22;15002;52.028;5.670;2024-01-16T05:39:20;3.50;99.90
27559;DHT22;15002;52.028;5.670;2024-01-16T05:41:46;3.60;99.90
27559;DHT22;15002;52.028;5.670;2024-01-16T05:44:12;3.50;99.90
27559;DHT22;15002;52.028;5.670;2024-01-16T05:46:37;3.40;99.90
27559;DHT22;15002;52.028;5.670;2024-01-16T05:49:09;3.40;99.90
27559;DHT22;15002;52.028;5.670;2024-01-16T05:51:35;3.40;99.90
27559;DHT22;15002;52.028;5.670;2024-01-16T05:54:00;3.50;99.90
27559;DHT22;15002;52.028;5.670;2024-01-16T05:56:26;3.40;99.90
27559;DHT22;15002;52.028;5.670;2024-01-16T05:58:51;3.40;99.90
27559;DHT22;15002;52.028;5.670;2024-01-16T06:01:17;3.40;99.90
27559;DHT22;15002;52.028;5.670;2024-01-16T06:03:43;3.40;99.90
27559;DHT22;15002;52.028;5.670;2024-01-16T06:06:11;3.50;99.90
27559;DHT22;15002;52.028;5.670;2024-01-16T06:08:37;3.40;99.90
27559;DHT22;15002;52.028;5.670;2024-01-16T06:11:02;3.40;99.90
27559;DHT22;15002;52.028;5.670;2024-01-16T06:13:28;3.50;99.90
27559;DHT22;15002;52.028;5.670;2024-01-16T06:15:55;3.50;99.90
27559;DHT22;15002;52.028;5.670;2024-01-16T06:18:21;3.50;99.90
27559;DHT22;15002;52.028;5.670;2024-01-16T06:20:47;3.70;99.90
27559;DHT22;15002;52.028;5.670;2024-01-16T06:23:12;3.60;99.90
27559;DHT22;15002;52.028;5.670;2024-01-16T06:25:38;3.70;99.90
27559;DHT22;15002;52.028;5.670;2024-01-16T06:28:03;3.70;99.90
27559;DHT22;15002;52.028;5.670;2024-01-16T06:30:30;3.70;99.90
27559;DHT22;15002;52.028;5.670;2024-01-16T06:32:56;3.70;99.90
27559;DHT22;15002;52.028;5.670;2024-01-16T06:35:22;3.70;99.90
27559;DHT22;15002;52.028;5.670;2024-01-16T06:37:49;3.70;99.90
27559;DHT22;15002;52.028;5.670;2024-01-16T06:40:14;3.60;99.90
27559;DHT22;15002;52.028;5.670;2024-01-16T06:42:40;3.50;99.90
27559;DHT22;15002;52.028;5.670;2024-01-16T06:45:06;3.70;99.90
27559;DHT22;15002;52.028;5.670;2024-01-16T06:47:32;3.70;99.90
27559;DHT22;15002;52.028;5.670;2024-01-16T06:49:58;3.60;99.90
27559;DHT22;15002;52.028;5.670;2024-01-16T06:52:23;3.70;99.90
27559;DHT22;15002;52.028;5.670;2024-01-16T06:54:50;3.90;99.90
27559;DHT22;15002;52.028;5.670;2024-01-16T06:57:16;3.80;99.90
27559;DHT22;15002;52.028;5.670;2024-01-16T06:59:41;3.80;99.90
27559;DHT22;15002;52.028;5.670;2024-01-16T07:02:07;3.70;99.90
27559;DHT22;15002;52.028;5.670;2024-01-16T07:04:33;3.70;99.90
27559;DHT22;15002;52.028;5.670;2024-01-16T07:06:59;3.70;99.90
27559;DHT22;15002;52.028;5.670;2024-01-16T07:09:25;3.70;99.90
27559;DHT22;15002;52.028;5.670;2024-01-16T07:11:53;3.90;99.90
27559;DHT22;15002;52.028;5.670;2024-01-16T07:14:18;3.80;99.90
27559;DHT22;15002;52.028;5.670;2024-01-16T07:16:45;3.80;99.90
27559;DHT22;15002;52.028;5.670;2024-01-16T07:19:11;3.80;99.90
27559;DHT22;15002;52.028;5.670;2024-01-16T07:21:37;3.80;99.90
27559;DHT22;15002;52.028;5.670;2024-01-16T07:24:03;3.90;99.90
27559;DHT22;15002;52.028;5.670;2024-01-16T07:26:29;3.90;99.90
27559;DHT22;15002;52.028;5.670;2024-01-16T07:28:55;3.90;99.90
27559;DHT22;15002;52.028;5.670;2024-01-16T07:31:21;3.90;99.90
27559;DHT22;15002;52.028;5.670;2024-01-16T07:33:47;3.80;99.90
27559;DHT22;15002;52.028;5.670;2024-01-16T07:36:13;3.80;99.90
27559;DHT22;15002;52.028;5.670;2024-01-16T07:38:39;3.90;99.90
27559;DHT22;15002;52.028;5.670;2024-01-16T07:41:05;3.90;99.90
27559;DHT22;15002;52.028;5.670;2024-01-16T07:43:31;3.90;99.90
27559;DHT22;15002;52.028;5.670;2024-01-16T07:45:57;3.80;99.90
27559;DHT22;15002;52.028;5.670;2024-01-16T07:48:23;3.90;99.90
27559;DHT22;15002;52.028;5.670;2024-01-16T07:50:49;4.00;99.90
27559;DHT22;15002;52.028;5.670;2024-01-16T07:53:15;4.00;99.90
27559;DHT22;15002;52.028;5.670;2024-01-16T07:55:41;3.90;99.90
27559;DHT22;15002;52.028;5.670;2024-01-16T07:58:07;3.90;99.90
27559;DHT22;15002;52.028;5.670;2024-01-16T08:00:33;3.90;99.90
27559;DHT22;15002;52.028;5.670;2024-01-16T08:02:58;4.10;99.90
27559;DHT22;15002;52.028;5.670;2024-01-16T08:05:24;4.00;99.90
27559;DHT22;15002;52.028;5.670;2024-01-16T08:07:53;3.90;99.90
27559;DHT22;15002;52.028;5.670;2024-01-16T08:10:19;3.90;99.90
27559;DHT22;15002;52.028;5.670;2024-01-16T08:12:45;3.80;99.90
27559;DHT22;15002;52.028;5.670;2024-01-16T08:15:10;3.90;99.90
27559;DHT22;15002;52.028;5.670;2024-01-16T08:17:36;3.90;99.90
27559;DHT22;15002;52.028;5.670;2024-01-16T08:20:02;3.90;99.90
27559;DHT22;15002;52.028;5.670;2024-01-16T08:22:28;4.00;99.90
27559;DHT22;15002;52.028;5.670;2024-01-16T08:24:54;4.00;99.90
27559;DHT22;15002;52.028;5.670;2024-01-16T08:27:20;4.10;99.90
27559;DHT22;15002;52.028;5.670;2024-01-16T08:29:46;4.20;99.90
27559;DHT22;15002;52.028;5.670;2024-01-16T08:32:16;4.10;99.90
27559;DHT22;15002;52.028;5.670;2024-01-16T08:34:42;4.20;99.90
27559;DHT22;15002;52.028;5.670;2024-01-16T08:37:08;4.20;99.90
27559;DHT22;15002;52.028;5.670;2024-01-16T08:39:33;4.10;99.90
27559;DHT22;15002;52.028;5.670;2024-01-16T08:41:59;4.20;99.90
27559;DHT22;15002;52.028;5.670;2024-01-16T08:44:27;4.20;99.90
27559;DHT22;15002;52.028;5.670;2024-01-16T08:46:53;4.10;99.90
27559;DHT22;15002;52.028;5.670;2024-01-16T08:49:18;4.20;99.90
27559;DHT22;15002;52.028;5.670;2024-01-16T08:51:44;4.20;99.90
27559;DHT22;15002;52.028;5.670;2024-01-16T08:54:10;4.10;99.90
27559;DHT22;15002;52.028;5.670;2024-01-16T08:56:35;4.10;99.90
27559;DHT22;15002;52.028;5.670;2024-01-16T08:59:02;4.10;99.90
27559;DHT22;15002;52.028;5.670;2024-01-16T09:01:27;4.00;99.90
27559;DHT22;15002;52.028;5.670;2024-01-16T09:03:53;4.00;99.90
27559;DHT22;15002;52.028;5.670;2024-01-16T09:06:19;4.20;99.90
27559;DHT22;15002;52.028;5.670;2024-01-16T09:08:44;4.10;99.90
27559;DHT22;15002;52.028;5.670;2024-01-16T09:11:10;3.90;99.90
27559;DHT22;15002;52.028;5.670;2024-01-16T09:13:37;4.00;99.90
27559;DHT22;15002;52.028;5.670;2024-01-16T09:16:03;4.10;99.90
27559;DHT22;15002;52.028;5.670;2024-01-16T09:18:28;4.10;99.90
27559;DHT22;15002;52.028;5.670;2024-01-16T09:20:54;4.40;99.90
27559;DHT22;15002;52.028;5.670;2024-01-16T09:23:20;4.40;99.90
27559;DHT22;15002;52.028;5.670;2024-01-16T09:25:46;4.10;99.90
27559;DHT22;15002;52.028;5.670;2024-01-16T09:28:11;4.10;99.90
27559;DHT22;15002;52.028;5.670;2024-01-16T09:30:37;4.10;99.90
27559;DHT22;15002;52.028;5.670;2024-01-16T09:33:03;4.20;99.90
27559;DHT22;15002;52.028;5.670;2024-01-16T09:35:32;4.30;99.90
27559;DHT22;15002;52.028;5.670;2024-01-16T09:37:58;4.30;99.90
27559;DHT22;15002;52.028;5.670;2024-01-16T09:40:25;4.30;99.90
27559;DHT22;15002;52.028;5.670;2024-01-16T09:42:51;4.20;99.90
27559;DHT22;15002;52.028;5.670;2024-01-16T09:45:19;4.20;99.90
27559;DHT22;15002;52.028;5.670;2024-01-16T09:47:49;4.20;99.90
27559;DHT22;15002;52.028;5.670;2024-01-16T09:50:15;4.10;99.90
27559;DHT22;15002;52.028;5.670;2024-01-16T09:52:45;4.20;99.90
27559;DHT22;15002;52.028;5.670;2024-01-16T09:55:10;4.20;99.90
27559;DHT22;15002;52.028;5.670;2024-01-16T09:57:39;4.30;99.90
27559;DHT22;15002;52.028;5.670;2024-01-16T10:00:08;4.60;99.90
27559;DHT22;15002;52.028;5.670;2024-01-16T10:02:38;4.60;99.90
27559;DHT22;15002;52.028;5.670;2024-01-16T10:05:04;4.70;99.90
27559;DHT22;15002;52.028;5.670;2024-01-16T10:07:31;4.40;99.90
27559;DHT22;15002;52.028;5.670;2024-01-16T10:09:59;4.20;99.90
27559;DHT22;15002;52.028;5.670;2024-01-16T10:12:25;4.30;99.90
27559;DHT22;15002;52.028;5.670;2024-01-16T10:14:51;4.20;99.90
27559;DHT22;15002;52.028;5.670;2024-01-16T10:17:17;4.20;99.90
27559;DHT22;15002;52.028;5.670;2024-01-16T10:19:52;4.10;99.90
27559;DHT22;15002;52.028;5.670;2024-01-16T10:22:23;4.10;99.90
27559;DHT22;15002;52.028;5.670;2024-01-16T10:27:32;4.20;99.90
27559;DHT22;15002;52.028;5.670;2024-01-16T10:29:58;4.30;99.90
27559;DHT22;15002;52.028;5.670;2024-01-16T10:32:35;4.30;99.90
27559;DHT22;15002;52.028;5.670;2024-01-16T10:35:11;4.20;99.90
27559;DHT22;15002;52.028;5.670;2024-01-16T10:37:48;4.20;99.90
27559;DHT22;15002;52.028;5.670;2024-01-16T10:40:18;4.30;99.90
27559;DHT22;15002;52.028;5.670;2024-01-16T10:42:45;4.40;99.90
27559;DHT22;15002;52.028;5.670;2024-01-16T10:45:18;4.60;99.90
27559;DHT22;15002;52.028;5.670;2024-01-16T10:47:49;4.70;99.90
27559;DHT22;15002;52.028;5.670;2024-01-16T10:50:15;4.60;99.90
27559;DHT22;15002;52.028;5.670;2024-01-16T10:52:47;4.50;99.90
27559;DHT22;15002;52.028;5.670;2024-01-16T10:55:21;4.80;99.90
27559;DHT22;15002;52.028;5.670;2024-01-16T10:57:48;4.70;99.90
27559;DHT22;15002;52.028;5.670;2024-01-16T11:00:20;4.70;99.90
27559;DHT22;15002;52.028;5.670;2024-01-16T11:02:58;4.80;99.90
27559;DHT22;15002;52.028;5.670;2024-01-16T11:05:26;5.10;99.90
27559;DHT22;15002;52.028;5.670;2024-01-16T11:07:55;4.90;99.90
27559;DHT22;15002;52.028;5.670;2024-01-16T11:10:21;5.10;99.90
27559;DHT22;15002;52.028;5.670;2024-01-16T11:12:48;5.50;99.90
27559;DHT22;15002;52.028;5.670;2024-01-16T11:15:14;5.60;99.90
27559;DHT22;15002;52.028;5.670;2024-01-16T11:17:44;5.50;99.90
27559;DHT22;15002;52.028;5.670;2024-01-16T11:20:11;5.70;99.90
27559;DHT22;15002;52.028;5.670;2024-01-16T11:22:39;5.70;99.90
27559;DHT22;15002;52.028;5.670;2024-01-16T11:25:10;5.20;99.90
27559;DHT22;15002;52.028;5.670;2024-01-16T11:27:36;5.20;99.90
27559;DHT22;15002;52.028;5.670;2024-01-16T11:30:05;5.30;99.90
27559;DHT22;15002;52.028;5.670;2024-01-16T11:32:33;5.40;99.90
27559;DHT22;15002;52.028;5.670;2024-01-16T11:35:00;5.30;99.90
27559;DHT22;15002;52.028;5.670;2024-01-16T11:37:27;5.30;99.90
27559;DHT22;15002;52.028;5.670;2024-01-16T11:42:43;5.50;99.90
27559;DHT22;15002;52.028;5.670;2024-01-16T11:48:13;5.40;99.90
27559;DHT22;15002;52.028;5.670;2024-01-16T11:50:40;5.50;99.90
27559;DHT22;15002;52.028;5.670;2024-01-16T11:53:06;5.50;99.90
27559;DHT22;15002;52.028;5.670;2024-01-16T11:55:33;5.40;99.90
27559;DHT22;15002;52.028;5.670;2024-01-16T12:01:21;5.30;99.90
27559;DHT22;15002;52.028;5.670;2024-01-16T12:04:01;5.20;99.90
27559;DHT22;15002;52.028;5.670;2024-01-16T12:06:27;5.40;99.90
27559;DHT22;15002;52.028;5.670;2024-01-16T12:08:53;5.40;99.90
27559;DHT22;15002;52.028;5.670;2024-01-16T12:11:19;5.50;99.90
27559;DHT22;15002;52.028;5.670;2024-01-16T12:14:01;5.70;99.90
27559;DHT22;15002;52.028;5.670;2024-01-16T12:16:26;5.60;99.90
27559;DHT22;15002;52.028;5.670;2024-01-16T12:19:13;5.30;99.90
27559;DHT22;15002;52.028;5.670;2024-01-16T12:21:43;5.20;99.90
27559;DHT22;15002;52.028;5.670;2024-01-16T12:24:13;5.30;99.90
27559;DHT22;15002;52.028;5.670;2024-01-16T12:26:39;5.70;99.90
27559;DHT22;15002;52.028;5.670;2024-01-16T12:29:05;5.80;99.90
27559;DHT22;15002;52.028;5.670;2024-01-16T12:31:31;5.60;99.90
27559;DHT22;15002;52.028;5.670;2024-01-16T12:34:09;5.50;99.90
27559;DHT22;15002;52.028;5.670;2024-01-16T12:36:36;5.30;99.90
27559;DHT22;15002;52.028;5.670;2024-01-16T12:39:02;5.40;99.90
27559;DHT22;15002;52.028;5.670;2024-01-16T12:41:32;5.50;99.90
27559;DHT22;15002;52.028;5.670;2024-01-16T12:44:00;5.40;99.90
27559;DHT22;15002;52.028;5.670;2024-01-16T12:46:26;5.30;99.90
27559;DHT22;15002;52.028;5.670;2024-01-16T12:48:51;5.30;99.90
27559;DHT22;15002;52.028;5.670;2024-01-16T12:51:20;5.40;99.90
27559;DHT22;15002;52.028;5.670;2024-01-16T12:53:48;5.00;99.90
27559;DHT22;15002;52.028;5.670;2024-01-16T12:56:18;5.30;99.90
27559;DHT22;15002;52.028;5.670;2024-01-16T12:58:45;5.30;99.90
27559;DHT22;15002;52.028;5.670;2024-01-16T13:01:25;5.10;99.90
27559;DHT22;15002;52.028;5.670;2024-01-16T13:03:52;5.00;99.90
27559;DHT22;15002;52.028;5.670;2024-01-16T13:06:19;5.10;99.90
27559;DHT22;15002;52.028;5.670;2024-01-16T13:08:46;5.00;99.90
27559;DHT22;15002;52.028;5.670;2024-01-16T13:11:13;5.20;99.90
27559;DHT22;15002;52.028;5.670;2024-01-16T13:13:41;5.30;99.90
27559;DHT22;15002;52.028;5.670;2024-01-16T13:16:07;5.30;99.90
27559;DHT22;15002;52.028;5.670;2024-01-16T13:18:33;5.50;99.90
27559;DHT22;15002;52.028;5.670;2024-01-16T13:21:02;5.60;99.90
27559;DHT22;15002;52.028;5.670;2024-01-16T13:23:28;5.70;99.90
27559;DHT22;15002;52.028;5.670;2024-01-16T13:25:55;5.60;99.90
27559;DHT22;15002;52.028;5.670;2024-01-16T13:28:21;5.50;99.90
27559;DHT22;15002;52.028;5.670;2024-01-16T13:30:48;5.50;99.90
27559;DHT22;15002;52.028;5.670;2024-01-16T13:33:15;5.30;99.90
27559;DHT22;15002;52.028;5.670;2024-01-16T13:35:45;5.20;99.90
27559;DHT22;15002;52.028;5.670;2024-01-16T13:38:12;5.10;99.90
27559;DHT22;15002;52.028;5.670;2024-01-16T13:40:38;5.30;99.90
27559;DHT22;15002;52.028;5.670;2024-01-16T13:43:04;5.20;99.90
27559;DHT22;15002;52.028;5.670;2024-01-16T13:45:32;5.30;99.90
27559;DHT22;15002;52.028;5.670;2024-01-16T13:47:58;5.50;99.90
27559;DHT22;15002;52.028;5.670;2024-01-16T13:50:24;5.50;99.90
27559;DHT22;15002;52.028;5.670;2024-01-16T13:52:50;5.40;99.90
27559;DHT22;15002;52.028;5.670;2024-01-16T13:55:17;5.50;99.90
27559;DHT22;15002;52.028;5.670;2024-01-16T13:57:43;5.40;99.90
27559;DHT22;15002;52.028;5.670;2024-01-16T14:00:11;5.20;99.90
27559;DHT22;15002;52.028;5.670;2024-01-16T14:02:43;5.20;99.90
27559;DHT22;15002;52.028;5.670;2024-01-16T14:05:16;5.20;99.90
27559;DHT22;15002;52.028;5.670;2024-01-16T14:07:49;5.10;99.90
27559;DHT22;15002;52.028;5.670;2024-01-16T14:10:19;5.10;99.90
27559;DHT22;15002;52.028;5.670;2024-01-16T14:12:46;5.00;99.90
27559;DHT22;15002;52.028;5.670;2024-01-16T14:15:13;5.00;99.90
27559;DHT22;15002;52.028;5.670;2024-01-16T14:17:45;5.10;99.90
27559;DHT22;15002;52.028;5.670;2024-01-16T14:20:12;5.20;99.90
27559;DHT22;15002;52.028;5.670;2024-01-16T14:22:39;5.10;99.90
27559;DHT22;15002;52.028;5.670;2024-01-16T14:25:07;5.10;99.90
27559;DHT22;15002;52.028;5.670;2024-01-16T14:27:39;5.00;99.90
27559;DHT22;15002;52.028;5.670;2024-01-16T14:30:12;5.10;99.90
27559;DHT22;15002;52.028;5.670;2024-01-16T14:32:43;5.00;99.90
27559;DHT22;15002;52.028;5.670;2024-01-16T14:35:11;5.20;99.90
27559;DHT22;15002;52.028;5.670;2024-01-16T14:37:38;5.10;99.90
27559;DHT22;15002;52.028;5.670;2024-01-16T14:40:05;4.90;99.90
27559;DHT22;15002;52.028;5.670;2024-01-16T14:42:55;4.80;99.90
27559;DHT22;15002;52.028;5.670;2024-01-16T14:45:24;5.00;99.90
27559;DHT22;15002;52.028;5.670;2024-01-16T14:47:51;5.20;99.90
27559;DHT22;15002;52.028;5.670;2024-01-16T14:50:19;5.20;99.90
27559;DHT22;15002;52.028;5.670;2024-01-16T14:52:52;5.00;99.90
27559;DHT22;15002;52.028;5.670;2024-01-16T14:55:18;4.90;99.90
27559;DHT22;15002;52.028;5.670;2024-01-16T14:57:46;5.00;99.90
27559;DHT22;15002;52.028;5.670;2024-01-16T15:00:16;5.00;99.90
27559;DHT22;15002;52.028;5.670;2024-01-16T15:02:46;4.90;99.90
27559;DHT22;15002;52.028;5.670;2024-01-16T15:05:13;5.00;99.90
27559;DHT22;15002;52.028;5.670;2024-01-16T15:07:40;4.80;99.90
27559;DHT22;15002;52.028;5.670;2024-01-16T15:10:07;4.70;99.90
27559;DHT22;15002;52.028;5.670;2024-01-16T15:12:35;4.70;99.90
27559;DHT22;15002;52.028;5.670;2024-01-16T15:15:01;4.70;99.90
27559;DHT22;15002;52.028;5.670;2024-01-16T15:17:29;4.70;99.90
27559;DHT22;15002;52.028;5.670;2024-01-16T15:19:54;4.70;99.90
27559;DHT22;15002;52.028;5.670;2024-01-16T15:22:20;4.70;99.90
27559;DHT22;15002;52.028;5.670;2024-01-16T15:24:46;4.70;99.90
27559;DHT22;15002;52.028;5.670;2024-01-16T15:27:13;4.80;99.90
27559;DHT22;15002;52.028;5.670;2024-01-16T15:29:38;4.90;99.90
27559;DHT22;15002;52.028;5.670;2024-01-16T15:32:04;4.90;99.90
27559;DHT22;15002;52.028;5.670;2024-01-16T15:34:30;5.00;99.90
27559;DHT22;15002;52.028;5.670;2024-01-16T15:36:56;5.00;99.90
27559;DHT22;15002;52.028;5.670;2024-01-16T15:39:23;5.00;99.90
27559;DHT22;15002;52.028;5.670;2024-01-16T15:41:48;4.70;99.90
27559;DHT22;15002;52.028;5.670;2024-01-16T15:44:14;4.60;99.90
27559;DHT22;15002;52.028;5.670;2024-01-16T15:47:00;4.60;99.90
27559;DHT22;15002;52.028;5.670;2024-01-16T15:49:27;4.50;99.90
27559;DHT22;15002;52.028;5.670;2024-01-16T15:51:54;4.60;99.90
27559;DHT22;15002;52.028;5.670;2024-01-16T15:54:20;4.70;99.90
27559;DHT22;15002;52.028;5.670;2024-01-16T15:56:46;4.60;99.90